Terminal Aerodrome Forecast
Issued by NWS Wichita, KS

Home | Current Version | Previous Version | Text Only | Print | Product List | Glossary On
Versions: 1 2 3 4 5 6 7 8 9 10 11 12
043
FTUS43 KICT 131720
TAFICT
TAF
KICT 131720Z 1318/1418 34017G26KT P6SM FEW250
     FM140000 35008KT P6SM SKC
     FM141300 35005KT P6SM BKN110=

USA.gov is the U.S. government's official web portal to all federal, state and local government web resources and services.